createdAt,value
2022-12-25T00:01:20.907Z,9.10
2022-12-25T00:03:50.582Z,8.67
2022-12-25T00:06:18.123Z,9.07
2022-12-25T00:08:44.516Z,9.87
2022-12-25T00:11:14.311Z,9.83
2022-12-25T00:13:40.963Z,10.97
2022-12-25T00:16:10.651Z,8.43
2022-12-25T00:18:36.833Z,8.20
2022-12-25T00:21:06.150Z,8.27
2022-12-25T00:23:34.215Z,8.33
2022-12-25T00:26:05.302Z,8.53
2022-12-25T00:28:31.437Z,8.47
2022-12-25T00:30:57.894Z,8.27
2022-12-25T00:33:25.392Z,9.30
2022-12-25T00:35:59.291Z,8.90
2022-12-25T00:38:25.787Z,7.83
2022-12-25T00:40:52.433Z,8.60
2022-12-25T00:43:19.007Z,8.27
2022-12-25T00:45:54.827Z,8.40
2022-12-25T00:48:21.012Z,8.33
2022-12-25T00:50:47.500Z,9.10
2022-12-25T00:53:13.676Z,7.93
2022-12-25T00:55:40.148Z,8.60
2022-12-25T00:58:06.300Z,8.70
2022-12-25T01:00:33.149Z,8.30
2022-12-25T01:02:59.602Z,12.07
2022-12-25T01:05:26.544Z,11.40
2022-12-25T01:07:52.730Z,12.03
2022-12-25T01:10:21.755Z,12.00
2022-12-25T01:12:49.708Z,12.33
2022-12-25T01:15:16.720Z,10.43
2022-12-25T01:17:43.748Z,12.10
2022-12-25T01:20:12.566Z,12.57
2022-12-25T01:22:38.892Z,19.93
2022-12-25T01:25:06.438Z,24.03
2022-12-25T01:27:32.801Z,17.03
2022-12-25T01:29:59.345Z,14.50
2022-12-25T01:32:25.659Z,13.13
2022-12-25T01:34:56.213Z,12.67
2022-12-25T01:37:25.728Z,11.23
2022-12-25T01:39:53.074Z,11.00
2022-12-25T01:42:22.915Z,11.37
2022-12-25T01:44:49.578Z,9.67
2022-12-25T01:47:16.970Z,10.37
2022-12-25T01:49:47.000Z,10.20
2022-12-25T01:52:23.607Z,10.10
2022-12-25T01:54:57.941Z,9.47
2022-12-25T01:57:30.575Z,9.43
2022-12-25T01:59:59.357Z,10.83
2022-12-25T02:02:27.345Z,9.33
2022-12-25T02:05:09.265Z,10.03
2022-12-25T02:07:37.429Z,11.10
2022-12-25T02:10:04.261Z,10.33
2022-12-25T02:12:33.306Z,9.83
2022-12-25T02:15:06.050Z,9.20
2022-12-25T02:17:38.787Z,9.53
2022-12-25T02:20:23.400Z,8.83
2022-12-25T02:23:07.921Z,9.03
2022-12-25T02:26:04.861Z,9.43
2022-12-25T02:28:52.970Z,9.50
2022-12-25T02:31:45.834Z,9.50
2022-12-25T02:34:11.978Z,9.90
2022-12-25T02:37:00.223Z,9.27
2022-12-25T02:39:48.147Z,10.17
2022-12-25T02:42:49.051Z,10.27
2022-12-25T02:45:43.755Z,9.43
2022-12-25T02:48:31.189Z,9.80
2022-12-25T02:51:18.946Z,10.60
2022-12-25T02:54:06.728Z,10.17
2022-12-25T02:56:54.037Z,9.67
2022-12-25T02:59:40.768Z,9.93
2022-12-25T03:02:26.725Z,10.13
2022-12-25T03:05:15.904Z,10.90
2022-12-25T03:07:43.860Z,10.13
2022-12-25T03:10:32.894Z,9.70
2022-12-25T03:13:16.318Z,9.80
2022-12-25T03:16:01.827Z,9.57
2022-12-25T03:18:30.763Z,9.40
2022-12-25T03:21:16.851Z,9.20
2022-12-25T03:24:12.881Z,9.80
2022-12-25T03:26:54.513Z,9.07
2022-12-25T03:29:46.553Z,8.67
2022-12-25T03:32:19.424Z,8.67
2022-12-25T03:35:24.598Z,7.87
2022-12-25T03:38:31.796Z,6.97
2022-12-25T03:41:35.040Z,7.33
2022-12-25T03:44:43.132Z,7.53
2022-12-25T03:47:20.757Z,6.90
2022-12-25T03:50:37.984Z,6.50
2022-12-25T03:53:29.686Z,7.00
2022-12-25T03:56:16.127Z,6.03
2022-12-25T03:59:13.005Z,8.67
2022-12-25T04:02:01.559Z,8.47
2022-12-25T04:04:46.818Z,7.67
2022-12-25T04:07:32.285Z,8.00
2022-12-25T04:10:16.968Z,7.27
2022-12-25T04:13:02.180Z,7.20
2022-12-25T04:15:46.933Z,6.33
2022-12-25T04:18:31.853Z,6.97
2022-12-25T04:21:16.733Z,6.63
2022-12-25T04:24:01.805Z,5.93
2022-12-25T04:26:46.617Z,5.47
2022-12-25T04:29:31.884Z,6.13
2022-12-25T04:32:16.710Z,5.83
2022-12-25T04:35:01.475Z,6.63
2022-12-25T04:37:27.742Z,6.07
2022-12-25T04:39:54.213Z,5.50
2022-12-25T04:42:20.335Z,5.80
2022-12-25T04:44:47.073Z,6.20
2022-12-25T04:47:13.169Z,4.93
2022-12-25T04:49:39.664Z,6.10
2022-12-25T04:52:05.941Z,5.83
2022-12-25T04:54:32.381Z,5.27
2022-12-25T04:56:58.595Z,5.87
2022-12-25T04:59:25.051Z,5.43
2022-12-25T05:01:51.353Z,5.90
2022-12-25T05:04:17.842Z,5.23
2022-12-25T05:06:44.125Z,5.77
2022-12-25T05:09:10.588Z,5.30
2022-12-25T05:11:36.826Z,5.70
2022-12-25T05:14:03.290Z,5.20
2022-12-25T05:16:30.052Z,5.30
2022-12-25T05:18:56.949Z,4.83
2022-12-25T05:21:23.358Z,5.60
2022-12-25T05:23:50.907Z,5.20
2022-12-25T05:26:20.013Z,5.40
2022-12-25T05:28:47.171Z,5.67
2022-12-25T05:31:13.863Z,4.80
2022-12-25T05:33:40.538Z,5.20
2022-12-25T05:36:08.809Z,5.50
2022-12-25T05:38:35.669Z,5.50
2022-12-25T05:41:01.939Z,5.83
2022-12-25T05:43:29.005Z,5.17
2022-12-25T05:45:55.660Z,5.17
2022-12-25T05:48:22.632Z,6.30
2022-12-25T05:50:48.965Z,5.70
2022-12-25T05:53:15.714Z,5.73
2022-12-25T05:55:43.014Z,4.97
2022-12-25T05:58:11.419Z,5.17
2022-12-25T06:00:38.115Z,4.90
2022-12-25T06:03:04.817Z,5.10
2022-12-25T06:05:32.079Z,5.13
2022-12-25T06:07:58.802Z,6.13
2022-12-25T06:10:25.144Z,5.10
2022-12-25T06:12:51.940Z,5.50
2022-12-25T06:15:18.525Z,5.17
2022-12-25T06:17:45.109Z,5.83
2022-12-25T06:20:11.308Z,6.20
2022-12-25T06:22:37.893Z,5.70
2022-12-25T06:25:04.401Z,6.00
2022-12-25T06:27:31.042Z,5.23
2022-12-25T06:29:57.609Z,5.93
2022-12-25T06:32:24.234Z,5.40
2022-12-25T06:34:50.524Z,5.90
2022-12-25T06:37:17.312Z,5.17
2022-12-25T06:39:43.773Z,5.80
2022-12-25T06:42:10.809Z,5.37
2022-12-25T06:44:37.864Z,5.27
2022-12-25T06:47:04.643Z,5.20
2022-12-25T06:49:30.818Z,6.23
2022-12-25T06:51:57.362Z,5.13
2022-12-25T06:54:23.652Z,5.27
2022-12-25T06:56:50.435Z,5.53
2022-12-25T06:59:16.773Z,5.57
2022-12-25T07:01:47.820Z,5.73
2022-12-25T07:04:23.709Z,4.70
2022-12-25T07:06:50.431Z,6.03
2022-12-25T07:09:16.667Z,5.47
2022-12-25T07:11:43.192Z,5.10
2022-12-25T07:14:24.313Z,5.40
2022-12-25T07:16:51.619Z,5.03
2022-12-25T07:19:18.647Z,6.00
2022-12-25T07:21:45.918Z,5.73
2022-12-25T07:24:17.748Z,6.17
2022-12-25T07:26:44.233Z,6.97
2022-12-25T07:29:10.430Z,6.67
2022-12-25T07:31:37.120Z,5.80
2022-12-25T07:34:03.396Z,5.83
2022-12-25T07:36:29.981Z,6.03
2022-12-25T07:38:56.578Z,5.63
2022-12-25T07:41:23.053Z,5.27
2022-12-25T07:43:51.242Z,5.90
2022-12-25T07:46:18.459Z,6.13
2022-12-25T07:48:44.773Z,5.67
2022-12-25T07:51:13.292Z,5.70
2022-12-25T07:53:40.199Z,6.53
2022-12-25T07:56:17.758Z,5.90
2022-12-25T07:58:44.785Z,6.07
2022-12-25T08:01:26.149Z,5.70
2022-12-25T08:03:55.532Z,6.27
2022-12-25T08:06:28.867Z,6.27
2022-12-25T08:09:07.153Z,6.23
2022-12-25T08:11:34.266Z,6.80
2022-12-25T08:18:29.850Z,6.53
2022-12-25T08:21:00.964Z,6.33
2022-12-25T08:23:27.522Z,6.47
2022-12-25T08:26:04.233Z,6.03
2022-12-25T08:28:33.366Z,5.90
2022-12-25T08:31:04.653Z,6.50
2022-12-25T08:33:31.299Z,6.17
2022-12-25T08:36:04.287Z,6.67
2022-12-25T08:38:30.917Z,6.30
2022-12-25T08:40:57.509Z,6.73
2022-12-25T08:43:24.116Z,7.10
2022-12-25T08:45:50.334Z,6.63
2022-12-25T08:48:17.021Z,5.80
2022-12-25T08:50:48.334Z,5.97
2022-12-25T08:53:19.470Z,7.30
2022-12-25T08:55:48.613Z,8.03
2022-12-25T08:58:15.889Z,8.43
2022-12-25T09:00:42.516Z,7.57
2022-12-25T09:03:09.144Z,7.90
2022-12-25T09:05:36.183Z,7.80
2022-12-25T09:08:03.339Z,8.30
2022-12-25T09:10:29.624Z,8.70
2022-12-25T09:12:56.417Z,8.90
2022-12-25T09:15:22.879Z,7.73
2022-12-25T09:17:49.391Z,5.83
2022-12-25T09:20:15.597Z,6.03
2022-12-25T09:22:42.111Z,6.10
2022-12-25T09:25:08.820Z,5.60
2022-12-25T09:27:35.344Z,5.93
2022-12-25T09:30:01.784Z,6.70
2022-12-25T09:32:28.582Z,6.40
2022-12-25T09:34:54.823Z,6.07
2022-12-25T09:37:21.691Z,6.07
2022-12-25T09:39:48.060Z,6.10
2022-12-25T09:42:19.834Z,6.03
2022-12-25T09:44:57.113Z,7.20
2022-12-25T09:47:29.026Z,7.30
2022-12-25T09:50:13.302Z,7.00
2022-12-25T09:52:52.687Z,7.17
2022-12-25T09:55:24.842Z,11.80
2022-12-25T09:57:55.225Z,9.73
2022-12-25T10:00:31.435Z,9.10
2022-12-25T10:03:14.763Z,8.50
2022-12-25T10:06:05.962Z,8.13
2022-12-25T10:08:41.347Z,8.67
2022-12-25T10:11:43.890Z,8.93
2022-12-25T10:14:39.515Z,10.90
2022-12-25T10:17:43.070Z,10.03
2022-12-25T10:20:36.361Z,10.40
2022-12-25T10:23:11.421Z,10.27
2022-12-25T10:25:38.658Z,12.70
2022-12-25T10:28:13.515Z,13.60
2022-12-25T10:30:43.374Z,13.73
2022-12-25T10:33:16.877Z,16.43
2022-12-25T10:35:45.118Z,17.33
2022-12-25T10:38:17.148Z,16.73
2022-12-25T10:40:44.224Z,18.50
2022-12-25T10:43:28.213Z,19.80
2022-12-25T10:45:54.900Z,15.37
2022-12-25T10:48:27.337Z,15.13
2022-12-25T10:50:55.378Z,20.00
2022-12-25T10:53:24.940Z,15.90
2022-12-25T10:55:55.322Z,16.27
2022-12-25T10:58:21.689Z,15.57
2022-12-25T11:00:54.644Z,17.50
2022-12-25T11:03:29.059Z,18.90
2022-12-25T11:05:56.195Z,20.47
2022-12-25T11:08:25.988Z,16.17
2022-12-25T11:10:54.155Z,12.77
2022-12-25T11:13:24.568Z,17.27
2022-12-25T11:16:03.823Z,12.40
2022-12-25T11:18:43.876Z,22.70
2022-12-25T11:21:14.826Z,14.37
2022-12-25T11:23:54.822Z,12.37
2022-12-25T11:26:22.233Z,14.37
2022-12-25T11:28:50.715Z,33.20
2022-12-25T11:31:21.086Z,14.97
2022-12-25T11:34:04.475Z,14.50
2022-12-25T11:36:43.814Z,13.07
2022-12-25T11:39:22.336Z,15.53
2022-12-25T11:41:53.500Z,11.80
2022-12-25T11:44:51.913Z,16.30
2022-12-25T11:47:30.298Z,12.27
2022-12-25T11:50:04.625Z,13.47
2022-12-25T11:52:36.069Z,19.40
2022-12-25T11:55:40.277Z,17.57
2022-12-25T11:58:38.423Z,12.83
2022-12-25T12:01:16.549Z,11.63
2022-12-25T12:03:44.539Z,16.33
2022-12-25T12:06:29.309Z,17.33
2022-12-25T12:09:21.463Z,23.40
2022-12-25T12:11:58.315Z,16.17
2022-12-25T12:14:25.009Z,24.73
2022-12-25T12:16:51.504Z,23.23
2022-12-25T12:19:30.128Z,22.63
2022-12-25T12:22:00.965Z,14.67
2022-12-25T12:24:34.097Z,18.37
2022-12-25T12:27:12.545Z,20.87
2022-12-25T12:29:43.917Z,14.07
2022-12-25T12:32:42.193Z,15.10
2022-12-25T12:35:21.471Z,14.23
2022-12-25T12:38:12.665Z,14.77
2022-12-25T12:40:41.448Z,13.60
2022-12-25T12:43:39.979Z,16.03
2022-12-25T12:46:31.746Z,15.47
2022-12-25T12:49:21.032Z,16.67
2022-12-25T12:51:48.244Z,12.70
2022-12-25T12:54:22.464Z,18.30
2022-12-25T12:57:19.761Z,15.10
2022-12-25T12:59:47.079Z,13.23
2022-12-25T13:02:42.817Z,12.87
2022-12-25T13:05:41.685Z,11.93
2022-12-25T13:08:26.472Z,12.07
2022-12-25T13:11:06.083Z,11.60
2022-12-25T13:13:43.710Z,14.47
2022-12-25T13:16:22.061Z,13.90
2022-12-25T13:18:51.359Z,9.70
2022-12-25T13:21:22.585Z,11.00
2022-12-25T13:23:59.287Z,11.53
2022-12-25T13:26:26.423Z,11.43
2022-12-25T13:28:55.207Z,11.20
2022-12-25T13:31:26.926Z,11.17
2022-12-25T13:34:00.115Z,12.73
2022-12-25T13:36:28.807Z,10.90
2022-12-25T13:38:58.060Z,16.07
2022-12-25T13:41:47.392Z,15.67
2022-12-25T13:44:24.285Z,14.20
2022-12-25T13:46:50.532Z,16.33
2022-12-25T13:49:22.550Z,15.77
2022-12-25T13:51:50.173Z,16.07
2022-12-25T13:54:17.973Z,18.10
2022-12-25T13:56:53.947Z,18.53
2022-12-25T13:59:24.045Z,19.70
2022-12-25T14:01:53.102Z,23.07
2022-12-25T14:04:23.984Z,22.33
2022-12-25T14:06:51.722Z,19.30
2022-12-25T14:09:18.902Z,18.23
2022-12-25T14:11:49.725Z,17.70
2022-12-25T14:14:23.222Z,21.60
2022-12-25T14:16:52.687Z,23.07
2022-12-25T14:19:26.016Z,20.80
2022-12-25T14:22:01.705Z,21.33
2022-12-25T14:24:30.546Z,24.33
2022-12-25T14:26:59.817Z,22.17
2022-12-25T14:29:32.145Z,26.27
2022-12-25T14:31:59.887Z,22.83
2022-12-25T14:34:28.769Z,20.50
2022-12-25T14:36:55.619Z,21.37
2022-12-25T14:39:27.662Z,22.13
2022-12-25T14:41:53.980Z,24.83
2022-12-25T14:44:40.297Z,22.13
2022-12-25T14:47:09.601Z,24.47
2022-12-25T14:49:36.575Z,22.90
2022-12-25T14:52:28.878Z,21.70
2022-12-25T14:55:01.426Z,23.70
2022-12-25T14:57:32.531Z,22.03
2022-12-25T15:00:03.939Z,20.17
2022-12-25T15:02:39.822Z,20.13
2022-12-25T15:05:24.297Z,20.80
2022-12-25T15:08:18.673Z,22.50
2022-12-25T15:11:02.552Z,19.97
2022-12-25T15:13:30.528Z,19.60
2022-12-25T15:16:11.809Z,19.80
2022-12-25T15:18:41.165Z,19.63
2022-12-25T15:21:30.828Z,20.47
2022-12-25T15:23:58.484Z,18.17
2022-12-25T15:26:26.872Z,17.53
2022-12-25T15:28:53.293Z,17.37
2022-12-25T15:31:28.815Z,16.77
2022-12-25T15:33:57.425Z,15.67
2022-12-25T15:36:24.916Z,15.73
2022-12-25T15:38:51.453Z,16.20
2022-12-25T15:41:57.088Z,14.70
2022-12-25T15:44:24.245Z,14.97
2022-12-25T15:46:51.103Z,16.30
2022-12-25T15:49:17.912Z,14.90
2022-12-25T15:51:45.456Z,16.33
2022-12-25T15:54:12.064Z,15.20
2022-12-25T15:56:43.432Z,14.73
2022-12-25T15:59:14.384Z,15.10
2022-12-25T16:01:45.602Z,14.13
2022-12-25T16:04:11.815Z,14.27
2022-12-25T16:06:38.521Z,15.23
2022-12-25T16:09:04.981Z,14.33
2022-12-25T16:11:31.718Z,14.40
2022-12-25T16:13:57.882Z,15.20
2022-12-25T16:16:25.013Z,15.33
2022-12-25T16:18:51.324Z,17.63
2022-12-25T16:21:20.369Z,14.53
2022-12-25T16:23:46.797Z,14.43
2022-12-25T16:26:13.387Z,14.97
2022-12-25T16:28:39.695Z,14.53
2022-12-25T16:31:06.405Z,14.83
2022-12-25T16:33:32.797Z,15.27
2022-12-25T16:35:59.374Z,16.77
2022-12-25T16:38:26.320Z,16.37
2022-12-25T16:40:58.515Z,17.07
2022-12-25T16:43:25.505Z,16.83
2022-12-25T16:45:52.898Z,17.67
2022-12-25T16:48:19.273Z,16.43
2022-12-25T16:50:45.806Z,15.83
2022-12-25T16:53:12.151Z,17.77
2022-12-25T16:55:38.787Z,17.00
2022-12-25T16:58:05.684Z,16.80
2022-12-25T17:00:32.281Z,16.83
2022-12-25T17:02:59.954Z,17.40
2022-12-25T17:05:27.739Z,16.97
2022-12-25T17:07:54.031Z,17.27
2022-12-25T17:10:20.624Z,17.37
2022-12-25T17:12:46.783Z,15.93
2022-12-25T17:15:13.420Z,16.93
2022-12-25T17:17:39.607Z,16.90
2022-12-25T17:20:06.728Z,16.70
2022-12-25T17:22:33.002Z,16.97
2022-12-25T17:24:59.482Z,16.77
2022-12-25T17:27:26.068Z,17.97
2022-12-25T17:29:52.711Z,17.47
2022-12-25T17:32:19.113Z,18.53
2022-12-25T17:34:46.674Z,17.57
2022-12-25T17:37:12.976Z,18.40
2022-12-25T17:39:39.967Z,16.80
2022-12-25T17:42:06.331Z,18.80
2022-12-25T17:44:33.209Z,17.43
2022-12-25T17:46:59.914Z,18.43
2022-12-25T17:49:26.617Z,18.33
2022-12-25T17:51:53.247Z,17.30
2022-12-25T17:54:19.984Z,17.17
2022-12-25T17:56:46.344Z,18.10
2022-12-25T17:59:17.480Z,17.60
2022-12-25T18:01:45.035Z,17.73
2022-12-25T18:04:12.577Z,17.70
2022-12-25T18:06:39.284Z,16.83
2022-12-25T18:09:06.628Z,17.23
2022-12-25T18:11:33.312Z,17.40
2022-12-25T18:14:04.535Z,16.13
2022-12-25T18:16:33.813Z,17.23
2022-12-25T18:19:00.944Z,17.07
2022-12-25T18:21:28.352Z,15.97
2022-12-25T18:23:55.288Z,17.23
2022-12-25T18:26:22.056Z,16.53
2022-12-25T18:28:49.278Z,17.93
2022-12-25T18:31:21.692Z,17.23
2022-12-25T18:33:49.484Z,18.73
2022-12-25T18:36:22.251Z,17.40
2022-12-25T18:38:50.273Z,17.43
2022-12-25T18:41:17.074Z,18.33
2022-12-25T18:43:54.011Z,17.30
2022-12-25T18:46:24.756Z,17.17
2022-12-25T18:48:53.816Z,16.53
2022-12-25T18:51:20.463Z,17.53
2022-12-25T18:53:47.172Z,18.30
2022-12-25T18:56:16.513Z,18.87
2022-12-25T18:58:44.569Z,17.50
2022-12-25T19:01:13.872Z,18.30
2022-12-25T19:03:40.872Z,18.43
2022-12-25T19:06:07.498Z,19.43
2022-12-25T19:08:34.426Z,19.23
2022-12-25T19:11:05.975Z,19.10
2022-12-25T19:13:32.613Z,17.83
2022-12-25T19:16:00.384Z,18.60
2022-12-25T19:18:27.405Z,17.93
2022-12-25T19:20:53.745Z,18.23
2022-12-25T19:23:20.420Z,18.40
2022-12-25T19:25:47.107Z,18.17
2022-12-25T19:28:13.780Z,18.80
2022-12-25T19:30:40.357Z,18.53
2022-12-25T19:33:09.977Z,16.90
2022-12-25T19:35:40.049Z,17.67
2022-12-25T19:38:06.919Z,17.80
2022-12-25T19:40:38.004Z,16.93
2022-12-25T19:43:05.109Z,16.73
2022-12-25T19:45:31.904Z,16.67
2022-12-25T19:47:58.554Z,17.77
2022-12-25T19:50:30.073Z,15.03
2022-12-25T19:52:58.268Z,18.13
2022-12-25T19:55:24.588Z,16.70
2022-12-25T19:57:51.300Z,17.00
2022-12-25T20:00:17.741Z,17.70
2022-12-25T20:02:44.691Z,16.30
2022-12-25T20:05:11.507Z,16.47
2022-12-25T20:07:38.143Z,17.27
2022-12-25T20:10:04.726Z,15.43
2022-12-25T20:12:31.805Z,16.37
2022-12-25T20:14:58.221Z,18.27
2022-12-25T20:17:25.189Z,14.77
2022-12-25T20:19:51.700Z,17.40
2022-12-25T20:22:18.384Z,15.40
2022-12-25T20:24:47.064Z,16.57
2022-12-25T20:27:14.652Z,15.97
2022-12-25T20:29:41.116Z,16.00
2022-12-25T20:32:08.850Z,16.63
2022-12-25T20:34:35.154Z,14.93
2022-12-25T20:37:02.069Z,16.07
2022-12-25T20:39:28.641Z,14.90
2022-12-25T20:41:55.350Z,15.87
2022-12-25T20:44:21.865Z,15.30
2022-12-25T20:46:48.746Z,15.40
2022-12-25T20:49:15.047Z,15.10
2022-12-25T20:51:41.636Z,14.90
2022-12-25T20:54:09.180Z,15.93
2022-12-25T20:56:36.267Z,15.50
2022-12-25T20:59:02.846Z,14.53
2022-12-25T21:01:30.350Z,14.87
2022-12-25T21:03:58.215Z,14.73
2022-12-25T21:06:25.255Z,15.97
2022-12-25T21:08:52.236Z,15.07
2022-12-25T21:11:20.635Z,15.03
2022-12-25T21:13:48.045Z,14.33
2022-12-25T21:16:20.912Z,13.57
2022-12-25T21:18:48.996Z,14.60
2022-12-25T21:21:15.861Z,14.70
2022-12-25T21:23:42.480Z,15.97
2022-12-25T21:26:32.505Z,15.20
2022-12-25T21:29:01.803Z,13.70
2022-12-25T21:31:29.958Z,15.23
2022-12-25T21:33:57.251Z,14.23
2022-12-25T21:36:28.988Z,14.03
2022-12-25T21:38:58.417Z,14.60
2022-12-25T21:41:26.724Z,15.07
2022-12-25T21:43:53.684Z,14.60
2022-12-25T21:46:20.646Z,14.70
2022-12-25T21:48:47.357Z,15.00
2022-12-25T21:51:38.297Z,15.77
2022-12-25T21:54:05.659Z,15.97
2022-12-25T21:56:39.837Z,14.00
2022-12-25T21:59:16.988Z,15.17
2022-12-25T22:01:44.879Z,14.43
2022-12-25T22:04:12.614Z,13.40
2022-12-25T22:06:57.849Z,12.90
2022-12-25T22:09:24.500Z,12.63
2022-12-25T22:12:09.784Z,13.23
2022-12-25T22:14:54.706Z,13.43
2022-12-25T22:17:46.861Z,13.80
2022-12-25T22:20:21.028Z,12.47
2022-12-25T22:22:47.778Z,12.37
2022-12-25T22:25:15.260Z,11.53
2022-12-25T22:27:43.854Z,12.30
2022-12-25T22:30:16.033Z,13.20
2022-12-25T22:32:42.834Z,12.20
2022-12-25T22:35:11.403Z,12.50
2022-12-25T22:37:39.078Z,11.90
2022-12-25T22:40:07.783Z,11.63
2022-12-25T22:42:34.433Z,12.50
2022-12-25T22:45:00.973Z,12.43
2022-12-25T22:47:28.154Z,12.77
2022-12-25T22:49:54.505Z,12.20
2022-12-25T22:52:21.277Z,11.27
2022-12-25T22:54:47.635Z,11.20
2022-12-25T22:57:14.247Z,12.83
2022-12-25T22:59:40.725Z,12.37
2022-12-25T23:02:07.694Z,12.30
2022-12-25T23:04:34.089Z,10.63
2022-12-25T23:07:01.270Z,10.80
2022-12-25T23:09:27.973Z,10.57
2022-12-25T23:11:56.136Z,10.00
2022-12-25T23:14:38.685Z,10.83
2022-12-25T23:17:29.950Z,9.97
2022-12-25T23:20:17.793Z,10.20
2022-12-25T23:23:03.930Z,9.77
2022-12-25T23:25:48.685Z,9.23
2022-12-25T23:28:35.225Z,9.57
2022-12-25T23:31:01.435Z,9.30
2022-12-25T23:33:28.099Z,9.37
2022-12-25T23:35:54.274Z,9.83
2022-12-25T23:38:20.728Z,8.57
2022-12-25T23:40:46.950Z,8.90
2022-12-25T23:43:13.594Z,9.83
2022-12-25T23:45:39.796Z,9.23
2022-12-25T23:48:06.324Z,9.40
2022-12-25T23:50:33.178Z,9.30
2022-12-25T23:52:59.657Z,8.67
2022-12-25T23:55:25.789Z,8.77
2022-12-25T23:57:52.334Z,9.30
